Time;durP1;ratioP1;P1;durP2;ratioP2;P2;SDS_P1;SDS_P2;PMS_P1;PMS_P2;Temp;Humidity;BMP_temperature;BMP_pressure;BME280_temperature;BME280_humidity;BME280_pressure;Samples;Min_cycle;Max_cycle;Signal;HPM_P1;HPM_P2
2021/09/07 00:01:55;;;;;;;28.02;17.73;;;;;;;18.41;68.46;102344.28;5051910;28;20538;-59
2021/09/07 00:04:42;;;;;;;26.88;17.92;;;;;;;18.40;68.45;102350.94;5049344;28;20056;-59
2021/09/07 00:07:30;;;;;;;24.27;16.65;;;;;;;18.41;68.47;102354.50;5036638;28;20060;-59
2021/09/07 00:10:18;;;;;;;25.45;16.38;;;;;;;18.43;68.66;102350.34;5049366;28;20052;-59
2021/09/07 00:13:05;;;;;;;24.75;16.00;;;;;;;18.49;68.35;102345.63;5049192;28;20044;-59
2021/09/07 00:15:55;;;;;;;21.05;15.93;;;;;;;18.53;68.11;102349.47;5051938;28;20095;-59
2021/09/07 00:18:43;;;;;;;22.52;15.35;;;;;;;18.57;68.22;102345.03;5051671;28;20056;-59
2021/09/07 00:21:30;;;;;;;25.75;17.80;;;;;;;18.57;68.12;102336.75;5048943;28;20078;-59
2021/09/07 00:24:19;;;;;;;23.48;17.30;;;;;;;18.53;68.18;102335.66;5048874;28;20049;-59
2021/09/07 00:26:47;;;;;;;23.17;16.92;;;;;;;18.48;68.43;102333.75;5037857;28;20057;-59
2021/09/07 00:29:14;;;;;;;25.30;17.80;;;;;;;18.45;68.62;102325.25;5034077;28;20048;-59
2021/09/07 00:31:43;;;;;;;26.20;17.27;;;;;;;18.39;69.17;102329.94;5051559;28;20049;-59
2021/09/07 00:34:11;;;;;;;25.25;17.35;;;;;;;18.35;69.25;102325.28;5051892;28;20040;-59
2021/09/07 00:36:38;;;;;;;25.05;17.30;;;;;;;18.32;69.47;102323.91;5051318;28;20044;-59
2021/09/07 00:39:06;;;;;;;22.70;16.73;;;;;;;18.30;69.35;102318.69;5051204;28;20041;-59
2021/09/07 00:41:36;;;;;;;25.23;17.67;;;;;;;18.30;69.54;102315.94;5050192;28;20048;-59
2021/09/07 00:44:14;;;;;;;24.25;18.38;;;;;;;18.28;69.36;102318.16;5051516;28;20124;-59
2021/09/07 00:46:47;;;;;;;25.48;17.45;;;;;;;18.26;69.75;102317.59;5033682;28;20175;-59
2021/09/07 00:49:15;;;;;;;27.33;17.75;;;;;;;18.29;69.57;102316.22;5033485;28;20040;-59
2021/09/07 00:51:46;;;;;;;22.50;17.35;;;;;;;18.31;69.50;102314.00;5033272;28;20049;-60
2021/09/07 00:54:35;;;;;;;24.08;17.70;;;;;;;18.36;69.35;102304.88;5035965;28;20060;-59
2021/09/07 00:57:06;;;;;;;29.13;17.35;;;;;;;18.34;69.36;102301.56;5037162;28;20048;-59
2021/09/07 00:59:36;;;;;;;21.80;16.45;;;;;;;18.32;69.57;102301.81;5037132;28;20051;-59
2021/09/07 01:02:24;;;;;;;23.42;16.60;;;;;;;18.31;69.68;102309.28;5052476;28;20049;-59
2021/09/07 01:05:01;;;;;;;25.25;17.20;;;;;;;18.34;69.61;102304.31;5037034;28;20056;-59
2021/09/07 01:07:50;;;;;;;26.98;19.25;;;;;;;18.31;69.53;102303.78;5054463;28;20048;-59
2021/09/07 01:10:38;;;;;;;25.90;17.80;;;;;;;18.28;69.57;102303.53;5052107;28;20099;-59
2021/09/07 01:13:26;;;;;;;23.73;17.27;;;;;;;18.23;69.91;102301.63;5052674;28;20044;-58
2021/09/07 01:16:03;;;;;;;24.15;18.20;;;;;;;18.20;69.92;102299.41;5037052;28;20045;-59
2021/09/07 01:18:36;;;;;;;25.35;18.05;;;;;;;18.16;70.24;102295.59;5036932;28;20163;-58
2021/09/07 01:21:24;;;;;;;27.85;18.65;;;;;;;18.14;70.57;102296.97;5051507;28;20055;-56
2021/09/07 01:24:12;;;;;;;27.45;18.30;;;;;;;18.10;70.66;102299.47;5052394;28;20052;-56
2021/09/07 01:27:04;;;;;;;24.67;18.45;;;;;;;18.07;70.71;102302.78;5052386;28;20095;-57
2021/09/07 01:29:40;;;;;;;24.73;17.98;;;;;;;18.05;70.80;102297.53;5036749;28;20045;-59
2021/09/07 01:32:28;;;;;;;28.55;19.10;;;;;;;18.04;71.05;102297.84;5054406;28;20048;-59
2021/09/07 01:35:15;;;;;;;28.67;18.48;;;;;;;18.06;70.87;102298.38;5051444;28;20516;-59
2021/09/07 01:38:02;;;;;;;28.25;18.50;;;;;;;18.10;70.89;102302.22;5036525;28;20481;-59
2021/09/07 01:40:30;;;;;;;23.50;17.65;;;;;;;18.13;70.65;102285.09;5036680;28;20033;-57
2021/09/07 01:42:57;;;;;;;26.38;18.45;;;;;;;18.13;70.56;102295.31;5037135;28;20049;-55
2021/09/07 01:45:25;;;;;;;23.73;17.73;;;;;;;18.06;70.45;102290.94;5054433;28;20059;-56
2021/09/07 01:47:53;;;;;;;26.13;18.30;;;;;;;18.02;70.66;102287.09;5054193;28;20514;-57
2021/09/07 01:50:20;;;;;;;30.50;18.90;;;;;;;17.99;70.92;102295.09;5053315;28;20037;-57
2021/09/07 01:52:48;;;;;;;29.30;18.25;;;;;;;17.93;71.31;102291.53;5054196;28;20045;-55
2021/09/07 01:55:15;;;;;;;25.15;18.63;;;;;;;17.91;71.22;102292.94;5053931;28;20052;-54
2021/09/07 01:57:45;;;;;;;24.90;18.98;;;;;;;17.86;71.43;102291.81;5036351;28;20049;-55
2021/09/07 02:00:16;;;;;;;25.58;18.25;;;;;;;17.83;71.57;102292.41;5036412;28;20048;-55
2021/09/07 02:02:48;;;;;;;25.45;18.58;;;;;;;17.82;71.80;102285.25;5035830;28;20128;-54
2021/09/07 02:05:23;;;;;;;25.90;18.13;;;;;;;17.83;71.67;102297.09;5034704;28;20116;-59
2021/09/07 02:07:54;;;;;;;27.25;18.92;;;;;;;17.81;71.71;102300.13;5020021;28;20047;-56
2021/09/07 02:10:42;;;;;;;25.85;18.25;;;;;;;17.74;71.67;102309.78;5051281;28;20385;-59
2021/09/07 02:13:12;;;;;;;28.30;19.02;;;;;;;17.70;72.16;102309.50;5036329;28;20115;-59
2021/09/07 02:15:44;;;;;;;28.08;17.50;;;;;;;17.70;72.06;102308.66;5036646;28;20144;-58
2021/09/07 02:18:21;;;;;;;25.77;18.08;;;;;;;17.71;72.08;102311.16;5036216;28;20127;-59
2021/09/07 02:21:09;;;;;;;30.77;18.60;;;;;;;17.70;71.89;102311.44;5052331;28;20049;-59
2021/09/07 02:23:48;;;;;;;26.50;18.73;;;;;;;17.65;72.12;102317.78;5035877;28;20041;-59
2021/09/07 02:26:36;;;;;;;24.30;17.90;;;;;;;17.56;72.26;102317.53;5053696;28;20053;-59
2021/09/07 02:29:24;;;;;;;24.40;17.60;;;;;;;17.53;72.66;102315.31;5053799;28;20120;-59
2021/09/07 02:32:13;;;;;;;24.00;17.88;;;;;;;17.51;72.64;102313.94;5050833;28;20085;-59
2021/09/07 02:35:01;;;;;;;23.40;16.70;;;;;;;17.52;72.54;102312.84;5050758;28;20411;-59
2021/09/07 02:37:51;;;;;;;23.23;16.73;;;;;;;17.53;72.43;102307.03;5053242;28;20067;-59
2021/09/07 02:40:39;;;;;;;23.60;17.10;;;;;;;17.52;72.39;102307.34;5053240;28;20041;-59
2021/09/07 02:43:27;;;;;;;25.80;17.88;;;;;;;17.48;72.65;102300.72;5053231;28;20048;-59
2021/09/07 02:46:15;;;;;;;24.38;17.67;;;;;;;17.42;72.62;102294.41;5052661;28;20049;-59
2021/09/07 02:49:03;;;;;;;25.73;17.00;;;;;;;17.34;73.08;102298.56;5049867;28;20102;-59
2021/09/07 02:51:31;;;;;;;27.80;16.83;;;;;;;17.32;73.60;102298.00;5053224;28;20037;-60
2021/09/07 02:53:58;;;;;;;23.55;17.23;;;;;;;17.37;73.29;102288.91;5052957;28;20044;-61
2021/09/07 02:56:27;;;;;;;23.90;17.42;;;;;;;17.43;73.36;102287.78;5053008;28;20049;-60
2021/09/07 02:58:55;;;;;;;24.35;17.23;;;;;;;17.46;72.92;102285.31;5035304;28;20045;-60
2021/09/07 03:01:23;;;;;;;26.67;18.20;;;;;;;17.48;72.75;102284.19;5052822;28;20036;-59
2021/09/07 03:03:51;;;;;;;26.00;18.27;;;;;;;17.45;72.89;102286.41;5052779;28;20068;-59
2021/09/07 03:06:19;;;;;;;26.33;18.90;;;;;;;17.44;73.23;102278.44;5015460;28;20128;-59
2021/09/07 03:08:48;;;;;;;26.50;18.25;;;;;;;17.42;73.40;102275.94;5048346;28;20098;-59
2021/09/07 03:11:16;;;;;;;27.13;18.80;;;;;;;17.42;73.28;102270.44;5035062;28;20052;-59
2021/09/07 03:13:44;;;;;;;24.55;18.13;;;;;;;17.45;73.55;102272.63;5034840;28;20103;-59
2021/09/07 03:16:19;;;;;;;25.88;18.85;;;;;;;17.46;73.13;102270.69;5034437;28;20523;-59
2021/09/07 03:18:51;;;;;;;24.00;18.13;;;;;;;17.47;73.40;102272.34;5034264;28;20087;-59
2021/09/07 03:21:21;;;;;;;30.05;19.52;;;;;;;17.53;73.15;102259.38;5034669;28;20391;-59
2021/09/07 03:23:51;;;;;;;31.42;19.40;;;;;;;17.54;73.26;102263.81;5034726;28;20043;-59
2021/09/07 03:26:39;;;;;;;30.98;21.05;;;;;;;17.54;73.13;102259.09;5050907;28;20049;-59
2021/09/07 03:29:17;;;;;;;26.90;19.75;;;;;;;17.49;73.49;102275.66;5034754;28;20412;-59
2021/09/07 03:32:04;;;;;;;28.90;20.20;;;;;;;17.41;73.64;102268.78;5034356;28;20102;-59
2021/09/07 03:34:52;;;;;;;28.02;19.48;;;;;;;17.39;73.82;102265.50;5049766;28;20052;-59
2021/09/07 03:37:40;;;;;;;31.27;21.33;;;;;;;17.41;73.86;102268.78;5052100;28;20488;-59
2021/09/07 03:40:28;;;;;;;26.05;19.73;;;;;;;17.42;74.04;102275.13;5052212;28;20041;-59
2021/09/07 03:43:13;;;;;;;26.73;20.30;;;;;;;17.40;73.70;102272.63;5034725;28;20072;-59
2021/09/07 03:46:01;;;;;;;28.15;20.00;;;;;;;17.40;73.85;102275.41;5049047;28;20106;-59
2021/09/07 03:48:49;;;;;;;28.05;20.38;;;;;;;17.37;73.83;102267.69;5023473;28;20045;-59
2021/09/07 03:51:37;;;;;;;27.08;19.70;;;;;;;17.38;73.90;102269.34;5051898;28;20476;-59
2021/09/07 03:54:25;;;;;;;25.98;19.27;;;;;;;17.41;74.08;102273.47;5051970;28;20135;-59
2021/09/07 03:57:13;;;;;;;28.25;19.92;;;;;;;17.45;73.87;102274.56;5049390;28;20068;-59
2021/09/07 04:00:02;;;;;;;28.20;19.73;;;;;;;17.48;73.72;102267.66;5049201;28;20556;-59
2021/09/07 04:02:44;;;;;;;29.50;21.05;;;;;;;17.52;73.68;102266.00;5019828;28;20635;-59
2021/09/07 04:05:31;;;;;;;29.48;20.27;;;;;;;17.54;73.62;102261.03;5049235;28;20060;-59
2021/09/07 04:08:19;;;;;;;27.23;19.75;;;;;;;17.56;73.47;102265.16;5049400;28;20474;-58
2021/09/07 04:11:07;;;;;;;26.55;18.17;;;;;;;17.59;73.41;102264.59;5052081;28;20049;-56
2021/09/07 04:13:45;;;;;;;29.30;19.88;;;;;;;17.58;73.16;102262.97;5033948;28;20140;-61
2021/09/07 04:16:34;;;;;;;29.30;21.30;;;;;;;17.55;73.38;102273.72;5051995;28;20051;-59
2021/09/07 04:19:16;;;;;;;35.67;21.08;;;;;;;17.51;73.63;102275.38;5033827;28;20057;-56
2021/09/07 04:22:04;;;;;;;29.08;19.08;;;;;;;17.53;73.63;102273.16;5034786;28;20048;-55
2021/09/07 04:24:35;;;;;;;30.02;19.85;;;;;;;17.55;73.63;102260.75;5033745;28;20033;-59
2021/09/07 04:27:23;;;;;;;31.13;20.15;;;;;;;17.57;73.61;102263.22;5061179;28;20045;-60
2021/09/07 04:30:11;;;;;;;33.35;21.65;;;;;;;17.54;73.41;102261.88;5054541;28;20037;-60
2021/09/07 04:32:59;;;;;;;34.25;22.23;;;;;;;17.46;73.81;102268.78;5053225;28;20049;-57
2021/09/07 04:35:46;;;;;;;38.28;22.52;;;;;;;17.37;74.27;102262.19;5055751;28;20465;-60
2021/09/07 04:38:34;;;;;;;31.20;22.00;;;;;;;17.34;74.37;102257.25;5055288;28;20102;-59
2021/09/07 04:41:21;;;;;;;32.30;21.90;;;;;;;17.37;74.44;102255.84;5055373;28;20414;-58
2021/09/07 04:44:11;;;;;;;29.73;21.63;;;;;;;17.40;74.09;102269.06;5054878;28;20426;-59
2021/09/07 04:47:00;;;;;;;31.17;20.95;;;;;;;17.35;74.05;102264.38;5053202;28;20115;-60
2021/09/07 04:49:49;;;;;;;33.40;22.10;;;;;;;17.30;74.35;102272.66;5055098;28;20052;-61
2021/09/07 04:52:37;;;;;;;34.22;22.10;;;;;;;17.24;74.81;102273.75;5040409;28;20045;-61
2021/09/07 04:55:24;;;;;;;36.22;22.48;;;;;;;17.20;74.68;102278.19;5037245;28;20388;-61
2021/09/07 04:57:51;;;;;;;28.50;21.45;;;;;;;17.18;75.06;102280.41;5055253;28;20084;-61
2021/09/07 05:00:19;;;;;;;40.30;23.15;;;;;;;17.16;75.16;102282.59;5054379;28;20120;-61
2021/09/07 05:02:47;;;;;;;40.30;22.85;;;;;;;17.13;75.02;102286.72;5055016;28;20059;-61
2021/09/07 05:05:15;;;;;;;39.72;23.83;;;;;;;17.12;75.02;102284.25;5054682;28;20063;-60
2021/09/07 05:07:42;;;;;;;34.63;23.23;;;;;;;17.09;75.29;102276.53;5037084;28;20051;-61
2021/09/07 05:10:10;;;;;;;34.53;23.05;;;;;;;17.07;75.19;102281.50;5037193;28;20390;-60
2021/09/07 05:12:38;;;;;;;38.05;23.08;;;;;;;17.06;75.49;102277.91;5020381;28;20136;-59
2021/09/07 05:15:07;;;;;;;36.40;23.73;;;;;;;17.08;75.23;102280.38;5054824;28;20052;-61
2021/09/07 05:17:42;;;;;;;40.03;23.20;;;;;;;17.09;75.14;102282.06;5036870;28;20068;-60
2021/09/07 05:20:21;;;;;;;38.58;23.77;;;;;;;17.08;75.34;102285.88;5036745;28;20060;-61
2021/09/07 05:22:59;;;;;;;37.05;24.05;;;;;;;17.09;75.06;102280.13;5036853;28;20037;-61
2021/09/07 05:25:42;;;;;;;44.17;24.92;;;;;;;17.13;75.05;102277.66;5036314;28;20369;-61
2021/09/07 05:28:11;;;;;;;37.83;24.45;;;;;;;17.13;74.98;102278.47;5036416;28;20041;-61
2021/09/07 05:30:59;;;;;;;42.38;23.85;;;;;;;17.14;75.05;102284.78;5037211;28;20540;-61
2021/09/07 05:33:27;;;;;;;38.13;23.15;;;;;;;17.18;74.99;102288.66;5037201;28;20057;-59
2021/09/07 05:36:14;;;;;;;33.92;23.08;;;;;;;17.23;74.87;102294.16;5051630;28;20048;-60
2021/09/07 05:39:02;;;;;;;36.60;23.80;;;;;;;17.25;74.64;102286.44;5054104;28;20078;-61
2021/09/07 05:41:51;;;;;;;43.33;25.35;;;;;;;17.25;74.62;102292.78;5050534;28;20052;-61
2021/09/07 05:44:38;;;;;;;39.08;23.80;;;;;;;17.23;74.65;102294.16;5036416;28;20530;-62
2021/09/07 05:47:26;;;;;;;45.88;26.35;;;;;;;17.23;74.97;102288.66;5051526;28;20053;-60
2021/09/07 05:50:15;;;;;;;37.60;25.50;;;;;;;17.22;74.73;102296.09;5053762;28;20053;-61
2021/09/07 05:53:03;;;;;;;39.63;25.45;;;;;;;17.23;75.03;102294.16;5051742;28;20053;-59
2021/09/07 05:55:50;;;;;;;51.20;27.90;;;;;;;17.24;74.77;102298.56;5035786;28;20474;-62
2021/09/07 05:58:38;;;;;;;45.33;27.77;;;;;;;17.18;74.91;102302.44;5053459;28;20059;-61
2021/09/07 06:01:27;;;;;;;44.25;24.65;;;;;;;17.13;75.35;102305.19;4353648;28;10000213;-61
2021/09/07 06:04:15;;;;;;;51.38;30.23;;;;;;;17.12;75.24;102298.00;5014864;28;20079;-59
2021/09/07 06:07:02;;;;;;;43.20;26.98;;;;;;;17.13;75.60;102307.94;5051005;28;20049;-61
2021/09/07 06:09:50;;;;;;;38.38;25.15;;;;;;;17.17;75.43;102301.63;5057462;28;20053;-60
2021/09/07 06:12:37;;;;;;;33.17;22.50;;;;;;;17.21;75.26;102308.19;5062020;28;20056;-61
2021/09/07 06:15:25;;;;;;;35.83;24.42;;;;;;;17.27;75.23;102306.28;5048326;28;20056;-60
2021/09/07 06:18:13;;;;;;;37.10;23.80;;;;;;;17.31;74.99;102310.13;5049135;28;20094;-61
2021/09/07 06:21:00;;;;;;;34.58;21.27;;;;;;;17.35;75.07;102307.66;5047248;28;20041;-60
2021/09/07 06:23:48;;;;;;;37.67;23.85;;;;;;;17.40;74.94;102308.47;5048033;28;20068;-59
2021/09/07 06:26:35;;;;;;;37.55;24.73;;;;;;;17.39;74.83;102308.72;5039157;28;20533;-64
2021/09/07 06:29:23;;;;;;;41.40;27.67;;;;;;;17.38;75.17;102307.09;5046423;28;20482;-64
2021/09/07 06:32:13;;;;;;;40.45;26.60;;;;;;;17.36;74.88;102315.63;5050224;28;20080;-64
2021/09/07 06:35:01;;;;;;;42.97;27.50;;;;;;;17.39;74.95;102317.84;5030468;28;20045;-64
2021/09/07 06:37:49;;;;;;;42.00;25.65;;;;;;;17.38;75.01;102316.16;5055711;28;20052;-64
2021/09/07 06:40:36;;;;;;;34.38;21.83;;;;;;;17.43;75.07;102316.16;5050082;28;20051;-64
2021/09/07 06:43:24;;;;;;;32.30;23.75;;;;;;;17.50;74.74;102313.13;5030940;28;20056;-61
2021/09/07 06:46:00;;;;;;;36.25;24.40;;;;;;;17.55;74.63;102317.81;5032838;28;20510;-59
2021/09/07 06:48:48;;;;;;;39.47;25.52;;;;;;;17.61;74.26;102313.94;5047737;28;20053;-60
2021/09/07 06:51:34;;;;;;;35.83;23.25;;;;;;;17.64;74.02;102308.69;5034545;28;20518;-58
2021/09/07 06:54:22;;;;;;;43.67;28.92;;;;;;;17.67;74.07;102310.88;5049914;28;20041;-58
2021/09/07 06:56:52;;;;;;;44.08;25.45;;;;;;;17.67;74.41;102312.81;5034451;28;20045;-59
2021/09/07 06:59:39;;;;;;;37.03;25.00;;;;;;;17.67;74.78;102312.81;5040937;28;20080;-61
2021/09/07 07:02:27;;;;;;;45.45;24.83;;;;;;;17.68;74.77;102311.72;4988433;28;20047;-61
2021/09/07 07:05:15;;;;;;;44.55;27.98;;;;;;;17.71;74.94;102308.41;4986953;28;20047;-61
2021/09/07 07:08:03;;;;;;;42.53;26.42;;;;;;;17.74;74.92;102302.31;4999270;28;20105;-61
2021/09/07 07:10:51;;;;;;;42.17;26.38;;;;;;;17.77;74.81;102307.25;4991762;28;20121;-62
2021/09/07 07:13:38;;;;;;;48.33;28.45;;;;;;;17.80;74.83;102308.66;4991612;28;20061;-61
2021/09/07 07:16:26;;;;;;;45.47;25.05;;;;;;;17.84;74.50;102299.56;4990541;28;20519;-62
2021/09/07 07:18:54;;;;;;;43.33;24.88;;;;;;;17.88;74.58;102306.16;4994758;28;20049;-62
2021/09/07 07:21:42;;;;;;;38.83;25.35;;;;;;;17.94;74.32;102303.38;5008070;28;20136;-59
2021/09/07 07:24:10;;;;;;;45.63;26.92;;;;;;;17.98;74.54;102305.31;4989327;28;20117;-60
2021/09/07 07:26:59;;;;;;;40.40;25.17;;;;;;;18.01;74.49;102314.94;4991360;28;20054;-60
2021/09/07 07:29:28;;;;;;;38.88;24.30;;;;;;;18.04;74.36;102315.22;4990632;28;20050;-60
2021/09/07 07:31:56;;;;;;;37.75;24.05;;;;;;;18.06;74.57;102318.53;4989101;28;20074;-60
2021/09/07 07:34:24;;;;;;;40.92;26.45;;;;;;;18.10;74.46;102324.28;4980380;28;20129;-60
2021/09/07 07:36:55;;;;;;;41.17;27.13;;;;;;;18.12;74.73;102330.34;4989932;28;20050;-60
2021/09/07 07:39:23;;;;;;;41.38;25.70;;;;;;;18.16;74.46;102327.84;4991197;28;20042;-60
2021/09/07 07:41:53;;;;;;;45.65;25.80;;;;;;;18.19;74.26;102330.88;4991522;28;20535;-60
2021/09/07 07:44:23;;;;;;;47.90;26.15;;;;;;;18.21;73.93;102328.66;4990529;28;20042;-60
2021/09/07 07:46:54;;;;;;;46.33;28.55;;;;;;;18.23;73.47;102323.69;4988251;28;20129;-60
2021/09/07 07:49:42;;;;;;;40.97;27.38;;;;;;;18.26;72.81;102325.06;4979256;28;20413;-60
2021/09/07 07:52:10;;;;;;;44.22;28.75;;;;;;;18.29;72.58;102330.00;4989331;28;20038;-60
2021/09/07 07:54:54;;;;;;;49.47;29.67;;;;;;;18.31;72.15;102330.53;4989956;28;20050;-60
2021/09/07 07:57:42;;;;;;;39.58;25.77;;;;;;;18.34;71.88;102340.19;4989995;28;20086;-60
2021/09/07 08:00:10;;;;;;;39.45;25.27;;;;;;;18.36;72.46;102338.78;4990771;28;20034;-61
2021/09/07 08:02:58;;;;;;;42.50;24.77;;;;;;;18.41;71.84;102346.22;4991622;28;20055;-61
2021/09/07 08:05:50;;;;;;;43.42;29.10;;;;;;;18.44;71.41;102340.94;4988950;28;20057;-62
2021/09/07 08:08:38;;;;;;;37.60;26.40;;;;;;;18.47;71.52;102345.06;4991921;28;20051;-61
2021/09/07 08:11:25;;;;;;;42.42;27.85;;;;;;;18.49;71.66;102343.69;4981595;28;20047;-61
2021/09/07 08:14:13;;;;;;;43.20;25.15;;;;;;;18.52;71.44;102353.34;4986443;28;20048;-62
2021/09/07 08:17:01;;;;;;;44.42;29.23;;;;;;;18.56;71.36;102353.59;4987891;28;20054;-62
2021/09/07 08:19:48;;;;;;;41.00;25.20;;;;;;;18.60;71.48;102349.97;4995264;28;20062;-62
2021/09/07 08:22:17;;;;;;;40.03;26.00;;;;;;;18.64;71.60;102345.56;4993011;28;20034;-62
2021/09/07 08:25:05;;;;;;;41.03;26.42;;;;;;;18.69;71.52;102352.97;4992378;28;20693;-63
2021/09/07 08:27:39;;;;;;;42.20;25.33;;;;;;;18.73;71.61;102343.81;4991005;28;20046;-64
2021/09/07 08:30:27;;;;;;;37.67;24.35;;;;;;;18.78;71.42;102351.28;4992076;28;20050;-62
2021/09/07 08:33:17;;;;;;;43.33;28.45;;;;;;;18.81;71.22;102339.66;4991018;28;20046;-62
2021/09/07 08:35:45;;;;;;;38.83;24.45;;;;;;;18.85;71.02;102334.38;4990121;28;20547;-62
2021/09/07 08:38:33;;;;;;;42.85;24.48;;;;;;;18.90;70.86;102342.63;4992259;28;20047;-59
2021/09/07 08:41:20;;;;;;;44.90;24.67;;;;;;;18.94;70.97;102340.94;4992223;28;20078;-61
2021/09/07 08:44:09;;;;;;;43.85;23.73;;;;;;;18.97;71.09;102345.91;4992608;28;20167;-61
2021/09/07 08:46:57;;;;;;;42.00;24.30;;;;;;;19.00;70.08;102347.25;4988971;28;20604;-61
2021/09/07 08:49:48;;;;;;;36.38;25.00;;;;;;;19.03;69.72;102346.69;4991688;28;20493;-61
2021/09/07 08:52:35;;;;;;;41.70;27.05;;;;;;;19.07;69.17;102342.22;4978736;28;20058;-61
2021/09/07 08:55:23;;;;;;;45.83;28.50;;;;;;;19.10;69.13;102350.78;4986954;28;20042;-62
2021/09/07 08:57:51;;;;;;;45.30;28.15;;;;;;;19.17;68.91;102353.22;4989884;28;20531;-61
2021/09/07 09:00:27;;;;;;;35.70;22.85;;;;;;;19.22;68.70;102355.09;4987700;28;20054;-61
2021/09/07 09:02:58;;;;;;;40.17;25.33;;;;;;;19.27;68.18;102346.78;4997020;28;20046;-60
2021/09/07 09:05:29;;;;;;;48.97;28.70;;;;;;;19.30;68.25;102352.53;4986023;28;20050;-60
2021/09/07 09:07:58;;;;;;;40.33;26.65;;;;;;;19.38;68.01;102353.84;4992062;28;20386;-60
2021/09/07 09:10:27;;;;;;;40.97;27.63;;;;;;;19.47;68.16;102348.53;4991686;28;20039;-58
2021/09/07 09:13:10;;;;;;;40.55;26.73;;;;;;;19.54;67.65;102347.06;4986025;28;20043;-60
2021/09/07 09:15:39;;;;;;;36.22;25.92;;;;;;;19.58;67.47;102350.09;4984676;28;20148;-60
2021/09/07 09:18:13;;;;;;;39.80;24.50;;;;;;;19.63;66.10;102343.69;5001054;28;20189;-60
2021/09/07 09:20:56;;;;;;;31.33;21.98;;;;;;;19.66;65.30;102343.09;4988505;28;20042;-61
2021/09/07 09:23:40;;;;;;;33.80;23.15;;;;;;;19.71;64.68;102341.13;5015278;28;20053;-60
2021/09/07 09:26:27;;;;;;;31.40;22.00;;;;;;;19.77;63.77;102350.16;4994519;28;20085;-60
2021/09/07 09:29:20;;;;;;;30.40;21.33;;;;;;;19.78;64.34;102347.13;4994448;28;20057;-61
2021/09/07 09:32:10;;;;;;;33.33;22.08;;;;;;;19.80;64.81;102344.06;4995364;28;20120;-61
2021/09/07 09:35:02;;;;;;;34.20;24.52;;;;;;;19.81;63.97;102350.41;4988294;28;20054;-61
2021/09/07 09:37:54;;;;;;;36.10;23.58;;;;;;;19.91;63.58;102334.53;4990166;28;20050;-60
2021/09/07 09:40:43;;;;;;;31.75;18.27;;;;;;;20.00;63.84;102332.75;4999261;28;20062;-60
2021/09/07 09:43:38;;;;;;;33.63;22.95;;;;;;;20.06;63.58;102332.69;4977768;28;20046;-61
2021/09/07 09:46:27;;;;;;;36.05;20.98;;;;;;;20.14;61.17;102340.34;4991352;28;20046;-61
2021/09/07 09:49:15;;;;;;;29.15;19.98;;;;;;;20.19;59.37;102335.56;4993761;28;20397;-60
2021/09/07 09:52:08;;;;;;;28.17;20.10;;;;;;;20.25;59.22;102336.31;4994685;28;20046;-60
2021/09/07 09:54:39;;;;;;;35.15;21.05;;;;;;;20.26;58.19;102332.44;4993626;28;20066;-61
2021/09/07 09:57:27;;;;;;;26.38;18.23;;;;;;;20.27;58.39;102331.31;4989294;28;20108;-59
2021/09/07 10:00:16;;;;;;;34.15;21.25;;;;;;;20.30;57.03;102336.28;4979431;28;20485;-61
2021/09/07 10:03:09;;;;;;;27.65;18.05;;;;;;;20.34;58.70;102328.19;4988500;28;20173;-61
2021/09/07 10:05:44;;;;;;;31.27;21.03;;;;;;;20.35;57.98;102327.09;5014516;28;20078;-61
2021/09/07 10:08:31;;;;;;;29.75;19.70;;;;;;;20.41;57.88;102332.22;4987836;28;20523;-58
2021/09/07 10:11:24;;;;;;;28.00;17.73;;;;;;;20.43;57.86;102329.16;4986873;28;20093;-60
2021/09/07 10:14:14;;;;;;;31.45;19.58;;;;;;;20.46;57.68;102336.06;4988243;28;20053;-61
2021/09/07 10:17:34;;;;;;;30.42;20.15;;;;;;;20.50;57.66;102328.81;4991064;28;20066;-61
2021/09/07 10:20:46;;;;;;;32.75;20.20;;;;;;;20.58;58.73;102323.44;4976309;28;20061;-61
2021/09/07 10:26:39;;;;;;;27.40;18.10;;;;;;;20.75;58.65;102314.59;4989201;28;20081;-61
2021/09/07 10:29:30;;;;;;;24.65;15.40;;;;;;;20.87;58.35;102316.91;4988883;28;20484;-60
2021/09/07 10:32:26;;;;;;;29.65;16.65;;;;;;;20.93;58.08;102318.47;4994775;28;20053;-58
2021/09/07 10:35:16;;;;;;;27.45;17.35;;;;;;;20.99;56.57;102308.13;4989355;28;20046;-59
2021/09/07 10:38:08;;;;;;;23.52;14.48;;;;;;;21.04;59.90;102306.09;4990590;28;20053;-61
2021/09/07 10:40:56;;;;;;;25.45;16.77;;;;;;;21.09;58.12;102299.63;4993484;28;20046;-59
2021/09/07 10:43:48;;;;;;;26.25;15.23;;;;;;;21.14;57.95;102299.56;4993468;28;20066;-63
2021/09/07 10:46:48;;;;;;;22.88;15.07;;;;;;;21.13;57.43;102297.09;4992758;28;20050;-65
2021/09/07 10:49:44;;;;;;;26.33;16.52;;;;;;;21.09;56.59;102299.63;4993232;28;20462;-65
2021/09/07 10:52:32;;;;;;;26.52;15.65;;;;;;;21.10;56.41;102298.53;4989721;28;20141;-64
2021/09/07 10:55:22;;;;;;;24.52;15.52;;;;;;;21.17;55.70;102289.81;4992837;28;20492;-64
2021/09/07 10:58:30;;;;;;;23.50;15.05;;;;;;;21.14;55.42;102287.63;4987795;28;20054;-64
2021/09/07 11:01:31;;;;;;;23.92;15.77;;;;;;;21.21;55.47;102283.38;4987011;28;20042;-64
2021/09/07 11:04:32;;;;;;;23.60;15.60;;;;;;;21.32;55.92;102283.19;4989986;28;20051;-62
2021/09/07 11:07:42;;;;;;;23.45;14.93;;;;;;;21.38;55.58;102279.16;4989622;28;20056;-65
2021/09/07 11:10:27;;;;;;;22.55;15.75;;;;;;;21.40;56.19;102282.50;4997486;28;20187;-65
2021/09/07 11:13:28;;;;;;;21.70;14.88;;;;;;;21.45;56.06;102277.69;4987982;28;20050;-65
2021/09/07 11:16:16;;;;;;;23.23;15.60;;;;;;;21.52;56.14;102273.69;4991004;28;20049;-64
2021/09/07 11:19:04;;;;;;;23.40;15.85;;;;;;;21.75;55.08;102275.44;4991810;28;20050;-64
2021/09/07 11:21:32;;;;;;;27.58;17.48;;;;;;;21.81;54.91;102276.13;4972446;28;20042;-64
2021/09/07 11:24:20;;;;;;;27.33;16.98;;;;;;;21.80;54.98;102268.97;4991473;28;20046;-65
2021/09/07 11:27:24;;;;;;;25.67;16.85;;;;;;;21.78;55.12;102265.66;4992780;28;20081;-64
2021/09/07 11:30:22;;;;;;;24.50;15.73;;;;;;;21.78;55.53;102265.66;4988311;28;20062;-65
2021/09/07 11:33:13;;;;;;;29.23;18.17;;;;;;;21.84;55.27;102267.19;4993526;28;20049;-64
2021/09/07 11:36:03;;;;;;;22.00;15.27;;;;;;;21.81;55.83;102267.81;5007495;28;20065;-64
2021/09/07 11:38:52;;;;;;;27.80;18.17;;;;;;;21.79;55.87;102258.97;4994794;28;20053;-64
2021/09/07 11:41:39;;;;;;;24.20;15.35;;;;;;;21.76;56.07;102270.69;4991759;28;20050;-64
2021/09/07 11:44:28;;;;;;;37.33;16.17;;;;;;;21.81;56.07;102268.63;4992147;28;20054;-64
2021/09/07 11:47:16;;;;;;;24.65;15.40;;;;;;;21.80;56.47;102261.44;4992578;28;20059;-64
2021/09/07 11:50:04;;;;;;;24.77;14.10;;;;;;;21.79;56.49;102258.97;4983896;28;20058;-65
2021/09/07 11:52:52;;;;;;;23.20;14.40;;;;;;;21.77;56.14;102261.22;4989229;28;20552;-64
2021/09/07 11:55:50;;;;;;;23.30;15.85;;;;;;;21.84;56.33;102256.09;4989268;28;20109;-64
2021/09/07 11:58:33;;;;;;;25.92;16.33;;;;;;;21.93;56.12;102248.69;4986923;28;20046;-64
2021/09/07 12:01:11;;;;;;;26.30;16.20;;;;;;;22.03;55.30;102242.94;4980432;28;20046;-63
2021/09/07 12:03:44;;;;;;;18.35;11.57;;;;;;;22.06;55.81;102242.31;4990006;28;20038;-64
2021/09/07 12:06:30;;;;;;;28.73;18.40;;;;;;;22.04;55.69;102238.19;4991220;28;20065;-64
2021/09/07 12:09:22;;;;;;;26.27;18.08;;;;;;;22.07;56.02;102237.56;4991290;28;20118;-64
2021/09/07 12:12:09;;;;;;;26.33;17.95;;;;;;;22.09;55.99;102235.31;4990972;28;20050;-64
2021/09/07 12:14:44;;;;;;;29.92;18.15;;;;;;;22.08;55.92;102228.94;4990030;28;20046;-64
2021/09/07 12:17:35;;;;;;;22.35;14.38;;;;;;;22.11;55.88;102233.03;4983889;28;20054;-64
2021/09/07 12:20:12;;;;;;;22.95;15.48;;;;;;;22.15;55.71;102224.91;4991186;28;20048;-64
2021/09/07 12:23:01;;;;;;;29.38;15.65;;;;;;;22.35;54.70;102224.47;4992546;28;20046;-64